sensor_id;sensor_type;location;lat;lon;timestamp;P1;durP1;ratioP1;P2;durP2;ratioP2
75526;SDS011;64107;49.248;7.006;2024-03-23T00:56:20;14.80;;;8.45;;
75526;SDS011;64107;49.248;7.006;2024-03-23T00:58:46;18.13;;;8.73;;
75526;SDS011;64107;49.248;7.006;2024-03-23T01:01:12;16.17;;;10.43;;
75526;SDS011;64107;49.248;7.006;2024-03-23T01:03:38;16.13;;;7.90;;
75526;SDS011;64107;49.248;7.006;2024-03-23T01:06:04;6.32;;;4.38;;
75526;SDS011;64107;49.248;7.006;2024-03-23T01:08:29;11.60;;;5.78;;
75526;SDS011;64107;49.248;7.006;2024-03-23T01:10:59;19.98;;;8.68;;
75526;SDS011;64107;49.248;7.006;2024-03-23T01:13:25;16.25;;;7.78;;
75526;SDS011;64107;49.248;7.006;2024-03-23T01:15:52;12.63;;;4.78;;
75526;SDS011;64107;49.248;7.006;2024-03-23T01:18:19;8.85;;;5.68;;
75526;SDS011;64107;49.248;7.006;2024-03-23T01:20:45;18.27;;;8.18;;
75526;SDS011;64107;49.248;7.006;2024-03-23T01:23:11;8.18;;;4.15;;
75526;SDS011;64107;49.248;7.006;2024-03-23T01:25:37;12.20;;;7.82;;
75526;SDS011;64107;49.248;7.006;2024-03-23T01:28:04;16.73;;;7.38;;
75526;SDS011;64107;49.248;7.006;2024-03-23T01:30:31;12.02;;;5.72;;
75526;SDS011;64107;49.248;7.006;2024-03-23T01:32:57;5.00;;;3.28;;
75526;SDS011;64107;49.248;7.006;2024-03-23T01:35:23;7.35;;;3.58;;
75526;SDS011;64107;49.248;7.006;2024-03-23T01:37:49;14.77;;;7.95;;
75526;SDS011;64107;49.248;7.006;2024-03-23T01:40:16;10.88;;;5.63;;
75526;SDS011;64107;49.248;7.006;2024-03-23T01:42:42;12.98;;;7.07;;
75526;SDS011;64107;49.248;7.006;2024-03-23T01:45:08;14.50;;;8.18;;
75526;SDS011;64107;49.248;7.006;2024-03-23T01:47:35;17.88;;;7.90;;
75526;SDS011;64107;49.248;7.006;2024-03-23T01:50:01;13.68;;;5.13;;
75526;SDS011;64107;49.248;7.006;2024-03-23T01:52:27;20.75;;;8.60;;
75526;SDS011;64107;49.248;7.006;2024-03-23T01:54:53;9.93;;;4.32;;
75526;SDS011;64107;49.248;7.006;2024-03-23T01:57:19;14.82;;;7.13;;
75526;SDS011;64107;49.248;7.006;2024-03-23T01:59:46;8.07;;;4.75;;
75526;SDS011;64107;49.248;7.006;2024-03-23T02:02:12;12.68;;;6.45;;
75526;SDS011;64107;49.248;7.006;2024-03-23T02:04:38;11.07;;;5.03;;
75526;SDS011;64107;49.248;7.006;2024-03-23T02:07:04;15.90;;;7.80;;
75526;SDS011;64107;49.248;7.006;2024-03-23T02:09:32;18.73;;;9.73;;
75526;SDS011;64107;49.248;7.006;2024-03-23T02:11:58;14.20;;;7.95;;
75526;SDS011;64107;49.248;7.006;2024-03-23T02:14:24;18.38;;;9.40;;
75526;SDS011;64107;49.248;7.006;2024-03-23T02:16:50;19.50;;;5.90;;
75526;SDS011;64107;49.248;7.006;2024-03-23T02:19:16;13.90;;;6.38;;
75526;SDS011;64107;49.248;7.006;2024-03-23T02:21:42;13.27;;;7.00;;
75526;SDS011;64107;49.248;7.006;2024-03-23T02:24:08;13.48;;;6.75;;
75526;SDS011;64107;49.248;7.006;2024-03-23T02:26:34;16.63;;;9.55;;
75526;SDS011;64107;49.248;7.006;2024-03-23T02:29:00;22.70;;;12.45;;
75526;SDS011;64107;49.248;7.006;2024-03-23T02:31:26;18.88;;;10.25;;
75526;SDS011;64107;49.248;7.006;2024-03-23T02:33:52;10.98;;;5.45;;
75526;SDS011;64107;49.248;7.006;2024-03-23T02:36:18;5.25;;;2.78;;
75526;SDS011;64107;49.248;7.006;2024-03-23T02:38:46;10.95;;;5.50;;
75526;SDS011;64107;49.248;7.006;2024-03-23T02:41:12;14.02;;;6.97;;
75526;SDS011;64107;49.248;7.006;2024-03-23T02:43:38;8.68;;;4.68;;
75526;SDS011;64107;49.248;7.006;2024-03-23T02:46:04;7.80;;;4.18;;
75526;SDS011;64107;49.248;7.006;2024-03-23T02:48:30;6.18;;;3.90;;
75526;SDS011;64107;49.248;7.006;2024-03-23T02:50:56;8.55;;;4.03;;
75526;SDS011;64107;49.248;7.006;2024-03-23T02:53:22;9.85;;;5.13;;
75526;SDS011;64107;49.248;7.006;2024-03-23T02:55:48;8.02;;;4.00;;
75526;SDS011;64107;49.248;7.006;2024-03-23T02:58:14;7.07;;;2.15;;
75526;SDS011;64107;49.248;7.006;2024-03-23T03:00:40;7.40;;;3.50;;
75526;SDS011;64107;49.248;7.006;2024-03-23T03:03:06;5.85;;;3.33;;
75526;SDS011;64107;49.248;7.006;2024-03-23T03:05:32;4.40;;;2.55;;
75526;SDS011;64107;49.248;7.006;2024-03-23T03:07:58;8.13;;;4.57;;
75526;SDS011;64107;49.248;7.006;2024-03-23T03:10:24;6.85;;;2.97;;
75526;SDS011;64107;49.248;7.006;2024-03-23T03:12:50;5.93;;;3.35;;
75526;SDS011;64107;49.248;7.006;2024-03-23T03:15:16;5.38;;;3.17;;
75526;SDS011;64107;49.248;7.006;2024-03-23T03:17:42;5.13;;;3.72;;
75526;SDS011;64107;49.248;7.006;2024-03-23T03:20:08;1.83;;;1.33;;
75526;SDS011;64107;49.248;7.006;2024-03-23T03:22:38;3.75;;;2.30;;
75526;SDS011;64107;49.248;7.006;2024-03-23T03:25:04;4.35;;;2.53;;
75526;SDS011;64107;49.248;7.006;2024-03-23T03:27:31;3.13;;;2.30;;
75526;SDS011;64107;49.248;7.006;2024-03-23T03:29:57;2.25;;;1.80;;
75526;SDS011;64107;49.248;7.006;2024-03-23T03:32:25;1.48;;;1.05;;
75526;SDS011;64107;49.248;7.006;2024-03-23T03:37:17;2.15;;;1.80;;
75526;SDS011;64107;49.248;7.006;2024-03-23T03:39:43;1.50;;;1.25;;
75526;SDS011;64107;49.248;7.006;2024-03-23T03:42:09;1.75;;;1.27;;
75526;SDS011;64107;49.248;7.006;2024-03-23T03:44:35;2.60;;;1.33;;
75526;SDS011;64107;49.248;7.006;2024-03-23T03:47:01;1.10;;;0.68;;
75526;SDS011;64107;49.248;7.006;2024-03-23T03:49:27;0.82;;;0.60;;
75526;SDS011;64107;49.248;7.006;2024-03-23T03:54:20;0.50;;;0.50;;
75526;SDS011;64107;49.248;7.006;2024-03-23T03:56:46;0.65;;;0.40;;
75526;SDS011;64107;49.248;7.006;2024-03-23T03:59:12;0.90;;;0.73;;
75526;SDS011;64107;49.248;7.006;2024-03-23T04:01:39;1.50;;;0.93;;
75526;SDS011;64107;49.248;7.006;2024-03-23T04:06:31;0.35;;;0.30;;
75526;SDS011;64107;49.248;7.006;2024-03-23T04:08:58;1.33;;;0.57;;
75526;SDS011;64107;49.248;7.006;2024-03-23T04:13:50;0.20;;;0.20;;
75526;SDS011;64107;49.248;7.006;2024-03-23T04:16:29;0.50;;;0.40;;
75526;SDS011;64107;49.248;7.006;2024-03-23T04:18:55;1.05;;;0.60;;
75526;SDS011;64107;49.248;7.006;2024-03-23T04:23:47;0.90;;;0.55;;
75526;SDS011;64107;49.248;7.006;2024-03-23T04:28:39;0.30;;;0.20;;
75526;SDS011;64107;49.248;7.006;2024-03-23T04:33:30;0.20;;;0.20;;
75526;SDS011;64107;49.248;7.006;2024-03-23T04:35:56;2.58;;;0.30;;
75526;SDS011;64107;49.248;7.006;2024-03-23T04:40:57;0.60;;;0.55;;
75526;SDS011;64107;49.248;7.006;2024-03-23T04:43:24;0.63;;;0.63;;
75526;SDS011;64107;49.248;7.006;2024-03-23T04:48:15;0.47;;;0.40;;
75526;SDS011;64107;49.248;7.006;2024-03-23T04:50:41;0.40;;;0.40;;
75526;SDS011;64107;49.248;7.006;2024-03-23T04:53:07;0.57;;;0.55;;
75526;SDS011;64107;49.248;7.006;2024-03-23T04:57:59;0.40;;;0.30;;
75526;SDS011;64107;49.248;7.006;2024-03-23T05:02:51;0.52;;;0.50;;
75526;SDS011;64107;49.248;7.006;2024-03-23T05:05:18;0.20;;;0.20;;
75526;SDS011;64107;49.248;7.006;2024-03-23T05:10:10;0.52;;;0.52;;
75526;SDS011;64107;49.248;7.006;2024-03-23T05:12:39;0.08;;;0.08;;
75526;SDS011;64107;49.248;7.006;2024-03-23T05:15:05;0.40;;;0.40;;
75526;SDS011;64107;49.248;7.006;2024-03-23T05:17:32;0.28;;;0.20;;
75526;SDS011;64107;49.248;7.006;2024-03-23T05:19:58;0.85;;;0.45;;
75526;SDS011;64107;49.248;7.006;2024-03-23T05:24:50;0.60;;;0.57;;
75526;SDS011;64107;49.248;7.006;2024-03-23T05:27:16;0.20;;;0.20;;
75526;SDS011;64107;49.248;7.006;2024-03-23T05:32:08;0.82;;;0.80;;
75526;SDS011;64107;49.248;7.006;2024-03-23T05:37:00;1.38;;;0.82;;
75526;SDS011;64107;49.248;7.006;2024-03-23T05:41:52;1.38;;;0.63;;
75526;SDS011;64107;49.248;7.006;2024-03-23T05:44:18;1.00;;;0.68;;
75526;SDS011;64107;49.248;7.006;2024-03-23T05:49:13;3.05;;;0.60;;
75526;SDS011;64107;49.248;7.006;2024-03-23T05:54:05;0.80;;;0.55;;
75526;SDS011;64107;49.248;7.006;2024-03-23T05:58:56;1.27;;;0.98;;
75526;SDS011;64107;49.248;7.006;2024-03-23T06:03:48;1.05;;;0.65;;
75526;SDS011;64107;49.248;7.006;2024-03-23T06:08:41;1.73;;;1.35;;
75526;SDS011;64107;49.248;7.006;2024-03-23T06:13:33;3.95;;;1.88;;
75526;SDS011;64107;49.248;7.006;2024-03-23T06:16:00;2.70;;;1.08;;
75526;SDS011;64107;49.248;7.006;2024-03-23T06:18:26;9.00;;;1.15;;
75526;SDS011;64107;49.248;7.006;2024-03-23T06:20:52;7.85;;;2.15;;
75526;SDS011;64107;49.248;7.006;2024-03-23T06:25:45;1.15;;;1.05;;
75526;SDS011;64107;49.248;7.006;2024-03-23T06:28:11;5.20;;;2.53;;
75526;SDS011;64107;49.248;7.006;2024-03-23T06:30:37;4.28;;;2.17;;
75526;SDS011;64107;49.248;7.006;2024-03-23T06:33:03;4.70;;;1.13;;
75526;SDS011;64107;49.248;7.006;2024-03-23T06:35:30;3.72;;;1.88;;
75526;SDS011;64107;49.248;7.006;2024-03-23T06:37:56;1.55;;;0.55;;
75526;SDS011;64107;49.248;7.006;2024-03-23T06:40:23;1.67;;;0.45;;
75526;SDS011;64107;49.248;7.006;2024-03-23T06:45:15;2.03;;;1.65;;
75526;SDS011;64107;49.248;7.006;2024-03-23T06:50:06;6.00;;;2.45;;
75526;SDS011;64107;49.248;7.006;2024-03-23T06:54:58;4.40;;;1.08;;
75526;SDS011;64107;49.248;7.006;2024-03-23T06:57:25;3.88;;;1.40;;
75526;SDS011;64107;49.248;7.006;2024-03-23T07:02:16;9.23;;;3.65;;
75526;SDS011;64107;49.248;7.006;2024-03-23T07:07:08;5.82;;;2.08;;
75526;SDS011;64107;49.248;7.006;2024-03-23T07:12:00;8.80;;;3.55;;
75526;SDS011;64107;49.248;7.006;2024-03-23T07:16:52;5.95;;;2.17;;
75526;SDS011;64107;49.248;7.006;2024-03-23T07:21:44;7.20;;;3.22;;
75526;SDS011;64107;49.248;7.006;2024-03-23T07:24:10;8.05;;;3.42;;
75526;SDS011;64107;49.248;7.006;2024-03-23T07:29:03;3.53;;;1.63;;
75526;SDS011;64107;49.248;7.006;2024-03-23T07:31:29;4.13;;;1.50;;
75526;SDS011;64107;49.248;7.006;2024-03-23T07:36:21;5.60;;;2.17;;
75526;SDS011;64107;49.248;7.006;2024-03-23T07:41:16;8.05;;;3.38;;
75526;SDS011;64107;49.248;7.006;2024-03-23T07:43:42;8.13;;;2.85;;
75526;SDS011;64107;49.248;7.006;2024-03-23T07:48:34;8.27;;;3.85;;
75526;SDS011;64107;49.248;7.006;2024-03-23T07:53:27;2.22;;;1.30;;
75526;SDS011;64107;49.248;7.006;2024-03-23T07:56:00;6.55;;;2.42;;
75526;SDS011;64107;49.248;7.006;2024-03-23T07:58:26;2.53;;;1.70;;
75526;SDS011;64107;49.248;7.006;2024-03-23T08:00:53;8.77;;;1.88;;
75526;SDS011;64107;49.248;7.006;2024-03-23T08:03:19;10.38;;;4.72;;
75526;SDS011;64107;49.248;7.006;2024-03-23T08:05:45;8.63;;;6.03;;
75526;SDS011;64107;49.248;7.006;2024-03-23T08:10:37;3.85;;;2.40;;
75526;SDS011;64107;49.248;7.006;2024-03-23T08:13:12;4.32;;;1.80;;
75526;SDS011;64107;49.248;7.006;2024-03-23T08:15:38;2.63;;;1.77;;
75526;SDS011;64107;49.248;7.006;2024-03-23T08:18:04;5.03;;;1.55;;
75526;SDS011;64107;49.248;7.006;2024-03-23T08:20:30;6.30;;;2.22;;
75526;SDS011;64107;49.248;7.006;2024-03-23T08:22:56;1.67;;;1.00;;
75526;SDS011;64107;49.248;7.006;2024-03-23T08:25:22;3.70;;;2.00;;
75526;SDS011;64107;49.248;7.006;2024-03-23T08:27:48;2.83;;;1.60;;
75526;SDS011;64107;49.248;7.006;2024-03-23T08:30:14;0.98;;;0.88;;
75526;SDS011;64107;49.248;7.006;2024-03-23T08:32:39;1.55;;;0.70;;
75526;SDS011;64107;49.248;7.006;2024-03-23T08:35:06;3.35;;;1.33;;
75526;SDS011;64107;49.248;7.006;2024-03-23T08:37:32;4.50;;;2.28;;
75526;SDS011;64107;49.248;7.006;2024-03-23T08:39:58;1.20;;;0.82;;
75526;SDS011;64107;49.248;7.006;2024-03-23T08:42:24;4.35;;;2.08;;
75526;SDS011;64107;49.248;7.006;2024-03-23T08:44:50;6.40;;;2.35;;
75526;SDS011;64107;49.248;7.006;2024-03-23T08:47:16;1.63;;;0.90;;
75526;SDS011;64107;49.248;7.006;2024-03-23T08:49:42;3.08;;;1.60;;
75526;SDS011;64107;49.248;7.006;2024-03-23T08:52:08;0.55;;;0.50;;
75526;SDS011;64107;49.248;7.006;2024-03-23T08:54:34;3.58;;;2.22;;
75526;SDS011;64107;49.248;7.006;2024-03-23T08:57:00;5.10;;;2.00;;
75526;SDS011;64107;49.248;7.006;2024-03-23T09:01:52;2.22;;;1.20;;
75526;SDS011;64107;49.248;7.006;2024-03-23T09:04:18;1.45;;;0.93;;
75526;SDS011;64107;49.248;7.006;2024-03-23T09:06:44;2.53;;;1.80;;
75526;SDS011;64107;49.248;7.006;2024-03-23T09:09:10;1.42;;;1.10;;
75526;SDS011;64107;49.248;7.006;2024-03-23T09:14:02;1.90;;;0.95;;
75526;SDS011;64107;49.248;7.006;2024-03-23T09:18:54;5.18;;;2.75;;
75526;SDS011;64107;49.248;7.006;2024-03-23T09:23:46;7.53;;;2.65;;
75526;SDS011;64107;49.248;7.006;2024-03-23T09:28:38;5.63;;;2.75;;
75526;SDS011;64107;49.248;7.006;2024-03-23T09:31:07;8.15;;;2.65;;
75526;SDS011;64107;49.248;7.006;2024-03-23T09:33:34;3.47;;;1.88;;
75526;SDS011;64107;49.248;7.006;2024-03-23T09:36:04;3.42;;;1.38;;
75526;SDS011;64107;49.248;7.006;2024-03-23T09:38:30;5.68;;;2.17;;
75526;SDS011;64107;49.248;7.006;2024-03-23T09:40:56;9.10;;;2.65;;
75526;SDS011;64107;49.248;7.006;2024-03-23T09:43:22;2.28;;;1.48;;
75526;SDS011;64107;49.248;7.006;2024-03-23T09:48:14;7.15;;;2.15;;
75526;SDS011;64107;49.248;7.006;2024-03-23T09:50:41;3.00;;;1.77;;
75526;SDS011;64107;49.248;7.006;2024-03-23T09:53:07;1.55;;;0.85;;
75526;SDS011;64107;49.248;7.006;2024-03-23T09:55:33;5.22;;;1.25;;
75526;SDS011;64107;49.248;7.006;2024-03-23T09:58:02;5.55;;;1.77;;
75526;SDS011;64107;49.248;7.006;2024-03-23T10:00:30;5.90;;;1.98;;
75526;SDS011;64107;49.248;7.006;2024-03-23T10:02:56;7.70;;;1.95;;
75526;SDS011;64107;49.248;7.006;2024-03-23T10:05:26;4.28;;;1.48;;
75526;SDS011;64107;49.248;7.006;2024-03-23T10:07:52;4.28;;;1.48;;
75526;SDS011;64107;49.248;7.006;2024-03-23T10:10:19;1.38;;;1.15;;
75526;SDS011;64107;49.248;7.006;2024-03-23T10:12:46;6.18;;;1.88;;
75526;SDS011;64107;49.248;7.006;2024-03-23T10:15:22;6.85;;;2.08;;
75526;SDS011;64107;49.248;7.006;2024-03-23T10:17:49;3.92;;;1.48;;
75526;SDS011;64107;49.248;7.006;2024-03-23T10:20:21;6.70;;;2.17;;
75526;SDS011;64107;49.248;7.006;2024-03-23T10:22:49;5.45;;;1.83;;
75526;SDS011;64107;49.248;7.006;2024-03-23T10:25:15;8.38;;;3.28;;
75526;SDS011;64107;49.248;7.006;2024-03-23T10:27:42;4.35;;;2.20;;
75526;SDS011;64107;49.248;7.006;2024-03-23T10:35:21;2.53;;;1.23;;
75526;SDS011;64107;49.248;7.006;2024-03-23T10:37:47;2.33;;;1.08;;
75526;SDS011;64107;49.248;7.006;2024-03-23T10:40:16;3.53;;;0.85;;
75526;SDS011;64107;49.248;7.006;2024-03-23T10:42:43;2.25;;;1.25;;
75526;SDS011;64107;49.248;7.006;2024-03-23T10:45:12;6.32;;;2.03;;
75526;SDS011;64107;49.248;7.006;2024-03-23T10:50:04;3.47;;;1.27;;
75526;SDS011;64107;49.248;7.006;2024-03-23T10:52:31;5.55;;;1.88;;
75526;SDS011;64107;49.248;7.006;2024-03-23T10:54:57;4.32;;;1.50;;
75526;SDS011;64107;49.248;7.006;2024-03-23T10:57:26;2.55;;;0.90;;
75526;SDS011;64107;49.248;7.006;2024-03-23T10:59:52;1.23;;;0.88;;
75526;SDS011;64107;49.248;7.006;2024-03-23T11:02:19;2.20;;;1.38;;
75526;SDS011;64107;49.248;7.006;2024-03-23T11:04:45;4.53;;;2.00;;
75526;SDS011;64107;49.248;7.006;2024-03-23T11:09:52;4.65;;;1.58;;
75526;SDS011;64107;49.248;7.006;2024-03-23T11:14:48;7.07;;;2.33;;
75526;SDS011;64107;49.248;7.006;2024-03-23T11:17:17;3.42;;;1.15;;
75526;SDS011;64107;49.248;7.006;2024-03-23T11:19:43;6.90;;;1.70;;
75526;SDS011;64107;49.248;7.006;2024-03-23T11:22:09;2.80;;;1.15;;
75526;SDS011;64107;49.248;7.006;2024-03-23T11:27:05;3.97;;;1.27;;
75526;SDS011;64107;49.248;7.006;2024-03-23T11:29:40;5.05;;;1.33;;
75526;SDS011;64107;49.248;7.006;2024-03-23T11:32:07;2.95;;;1.15;;
75526;SDS011;64107;49.248;7.006;2024-03-23T11:34:35;1.95;;;0.73;;
75526;SDS011;64107;49.248;7.006;2024-03-23T11:37:04;1.92;;;0.75;;
75526;SDS011;64107;49.248;7.006;2024-03-23T11:39:31;0.57;;;0.50;;
75526;SDS011;64107;49.248;7.006;2024-03-23T11:41:57;2.80;;;0.77;;
75526;SDS011;64107;49.248;7.006;2024-03-23T11:44:23;1.83;;;0.68;;
75526;SDS011;64107;49.248;7.006;2024-03-23T11:46:51;2.83;;;0.77;;
75526;SDS011;64107;49.248;7.006;2024-03-23T11:49:26;0.43;;;0.22;;
75526;SDS011;64107;49.248;7.006;2024-03-23T11:51:53;1.77;;;0.75;;
75526;SDS011;64107;49.248;7.006;2024-03-23T11:54:22;2.35;;;0.85;;
75526;SDS011;64107;49.248;7.006;2024-03-23T11:59:37;1.10;;;0.52;;
75526;SDS011;64107;49.248;7.006;2024-03-23T12:04:36;1.10;;;0.50;;
75526;SDS011;64107;49.248;7.006;2024-03-23T12:07:08;0.68;;;0.40;;
75526;SDS011;64107;49.248;7.006;2024-03-23T12:12:18;0.20;;;0.17;;
75526;SDS011;64107;49.248;7.006;2024-03-23T12:15:00;0.85;;;0.43;;
75526;SDS011;64107;49.248;7.006;2024-03-23T12:17:27;3.40;;;0.63;;
75526;SDS011;64107;49.248;7.006;2024-03-23T12:19:53;0.22;;;0.22;;
75526;SDS011;64107;49.248;7.006;2024-03-23T12:22:22;0.50;;;0.40;;
75526;SDS011;64107;49.248;7.006;2024-03-23T12:24:48;0.47;;;0.35;;
75526;SDS011;64107;49.248;7.006;2024-03-23T12:27:14;0.80;;;0.70;;
75526;SDS011;64107;49.248;7.006;2024-03-23T12:32:08;2.70;;;0.77;;
75526;SDS011;64107;49.248;7.006;2024-03-23T12:34:34;4.60;;;0.68;;
75526;SDS011;64107;49.248;7.006;2024-03-23T12:37:00;3.75;;;0.73;;
75526;SDS011;64107;49.248;7.006;2024-03-23T12:39:26;0.35;;;0.35;;
75526;SDS011;64107;49.248;7.006;2024-03-23T12:41:52;0.43;;;0.32;;
75526;SDS011;64107;49.248;7.006;2024-03-23T12:44:18;3.42;;;0.50;;
75526;SDS011;64107;49.248;7.006;2024-03-23T12:46:44;0.50;;;0.30;;
75526;SDS011;64107;49.248;7.006;2024-03-23T12:49:10;3.90;;;1.45;;
75526;SDS011;64107;49.248;7.006;2024-03-23T12:51:36;1.52;;;0.70;;
75526;SDS011;64107;49.248;7.006;2024-03-23T12:54:03;2.38;;;1.08;;
75526;SDS011;64107;49.248;7.006;2024-03-23T12:56:29;3.42;;;0.82;;
75526;SDS011;64107;49.248;7.006;2024-03-23T12:58:58;2.08;;;0.50;;
75526;SDS011;64107;49.248;7.006;2024-03-23T13:01:24;2.17;;;1.23;;
75526;SDS011;64107;49.248;7.006;2024-03-23T13:03:50;2.30;;;1.02;;
75526;SDS011;64107;49.248;7.006;2024-03-23T13:06:16;1.50;;;0.80;;
75526;SDS011;64107;49.248;7.006;2024-03-23T13:08:46;0.85;;;0.45;;
75526;SDS011;64107;49.248;7.006;2024-03-23T13:11:12;1.50;;;0.50;;
75526;SDS011;64107;49.248;7.006;2024-03-23T13:13:39;1.38;;;0.30;;
75526;SDS011;64107;49.248;7.006;2024-03-23T13:16:05;2.08;;;0.57;;
75526;SDS011;64107;49.248;7.006;2024-03-23T13:18:32;1.05;;;0.40;;
75526;SDS011;64107;49.248;7.006;2024-03-23T13:20:58;1.00;;;0.45;;
75526;SDS011;64107;49.248;7.006;2024-03-23T13:23:24;0.45;;;0.43;;
75526;SDS011;64107;49.248;7.006;2024-03-23T13:25:54;1.20;;;0.68;;
75526;SDS011;64107;49.248;7.006;2024-03-23T13:28:23;0.22;;;0.22;;
75526;SDS011;64107;49.248;7.006;2024-03-23T13:30:49;1.23;;;0.38;;
75526;SDS011;64107;49.248;7.006;2024-03-23T13:33:15;3.60;;;0.73;;
75526;SDS011;64107;49.248;7.006;2024-03-23T13:35:48;2.53;;;0.90;;
75526;SDS011;64107;49.248;7.006;2024-03-23T13:38:14;0.82;;;0.40;;
75526;SDS011;64107;49.248;7.006;2024-03-23T13:40:48;3.08;;;0.93;;
75526;SDS011;64107;49.248;7.006;2024-03-23T13:43:14;0.40;;;0.35;;
75526;SDS011;64107;49.248;7.006;2024-03-23T13:45:40;0.65;;;0.50;;
75526;SDS011;64107;49.248;7.006;2024-03-23T13:48:06;1.80;;;0.82;;
75526;SDS011;64107;49.248;7.006;2024-03-23T13:50:33;2.35;;;0.80;;
75526;SDS011;64107;49.248;7.006;2024-03-23T13:52:59;1.70;;;0.50;;
75526;SDS011;64107;49.248;7.006;2024-03-23T13:55:25;2.20;;;0.50;;
75526;SDS011;64107;49.248;7.006;2024-03-23T13:57:51;1.50;;;0.65;;
75526;SDS011;64107;49.248;7.006;2024-03-23T14:00:17;2.92;;;0.65;;
75526;SDS011;64107;49.248;7.006;2024-03-23T14:02:43;1.60;;;0.60;;
75526;SDS011;64107;49.248;7.006;2024-03-23T14:05:09;0.70;;;0.30;;
75526;SDS011;64107;49.248;7.006;2024-03-23T14:07:36;3.47;;;0.45;;
75526;SDS011;64107;49.248;7.006;2024-03-23T14:10:05;2.95;;;1.10;;
75526;SDS011;64107;49.248;7.006;2024-03-23T14:12:31;2.40;;;0.60;;
75526;SDS011;64107;49.248;7.006;2024-03-23T14:14:57;1.05;;;0.63;;
75526;SDS011;64107;49.248;7.006;2024-03-23T14:17:23;2.22;;;0.80;;
75526;SDS011;64107;49.248;7.006;2024-03-23T14:19:51;0.57;;;0.30;;
75526;SDS011;64107;49.248;7.006;2024-03-23T14:24:47;0.20;;;0.10;;
75526;SDS011;64107;49.248;7.006;2024-03-23T14:27:13;2.00;;;0.30;;
75526;SDS011;64107;49.248;7.006;2024-03-23T14:29:39;1.27;;;0.40;;
75526;SDS011;64107;49.248;7.006;2024-03-23T14:32:05;0.63;;;0.30;;
75526;SDS011;64107;49.248;7.006;2024-03-23T14:34:31;0.77;;;0.20;;
75526;SDS011;64107;49.248;7.006;2024-03-23T14:36:57;1.02;;;0.52;;
75526;SDS011;64107;49.248;7.006;2024-03-23T14:39:23;1.80;;;0.75;;
75526;SDS011;64107;49.248;7.006;2024-03-23T14:41:50;0.40;;;0.20;;
75526;SDS011;64107;49.248;7.006;2024-03-23T14:44:16;0.60;;;0.28;;
75526;SDS011;64107;49.248;7.006;2024-03-23T14:46:42;2.63;;;0.30;;
75526;SDS011;64107;49.248;7.006;2024-03-23T14:49:08;0.30;;;0.30;;
75526;SDS011;64107;49.248;7.006;2024-03-23T14:51:34;0.63;;;0.40;;
75526;SDS011;64107;49.248;7.006;2024-03-23T14:54:00;2.42;;;0.80;;
75526;SDS011;64107;49.248;7.006;2024-03-23T14:56:26;1.63;;;0.65;;
75526;SDS011;64107;49.248;7.006;2024-03-23T14:58:52;1.10;;;0.32;;
75526;SDS011;64107;49.248;7.006;2024-03-23T15:01:18;2.13;;;0.77;;
75526;SDS011;64107;49.248;7.006;2024-03-23T15:03:45;2.15;;;0.60;;
75526;SDS011;64107;49.248;7.006;2024-03-23T15:06:12;0.65;;;0.40;;
75526;SDS011;64107;49.248;7.006;2024-03-23T15:08:38;0.65;;;0.60;;
75526;SDS011;64107;49.248;7.006;2024-03-23T15:11:07;3.92;;;0.85;;
75526;SDS011;64107;49.248;7.006;2024-03-23T15:13:34;5.43;;;0.68;;
75526;SDS011;64107;49.248;7.006;2024-03-23T15:16:00;1.00;;;0.60;;
75526;SDS011;64107;49.248;7.006;2024-03-23T15:18:28;5.18;;;1.40;;
75526;SDS011;64107;49.248;7.006;2024-03-23T15:20:55;2.58;;;0.90;;
75526;SDS011;64107;49.248;7.006;2024-03-23T15:23:21;2.33;;;0.75;;
75526;SDS011;64107;49.248;7.006;2024-03-23T15:25:54;1.50;;;0.60;;
75526;SDS011;64107;49.248;7.006;2024-03-23T15:28:20;0.65;;;0.50;;
75526;SDS011;64107;49.248;7.006;2024-03-23T15:30:46;4.88;;;0.75;;
75526;SDS011;64107;49.248;7.006;2024-03-23T15:33:12;2.38;;;0.80;;
75526;SDS011;64107;49.248;7.006;2024-03-23T15:35:38;0.75;;;0.50;;
75526;SDS011;64107;49.248;7.006;2024-03-23T15:38:04;2.65;;;0.73;;
75526;SDS011;64107;49.248;7.006;2024-03-23T15:40:30;1.67;;;0.75;;
75526;SDS011;64107;49.248;7.006;2024-03-23T15:42:56;0.30;;;0.30;;
75526;SDS011;64107;49.248;7.006;2024-03-23T15:45:21;0.40;;;0.40;;
75526;SDS011;64107;49.248;7.006;2024-03-23T15:47:47;0.13;;;0.13;;
75526;SDS011;64107;49.248;7.006;2024-03-23T15:50:14;2.42;;;0.77;;
75526;SDS011;64107;49.248;7.006;2024-03-23T15:52:40;1.27;;;0.50;;
75526;SDS011;64107;49.248;7.006;2024-03-23T15:55:06;1.85;;;0.63;;
75526;SDS011;64107;49.248;7.006;2024-03-23T15:57:33;0.57;;;0.20;;
75526;SDS011;64107;49.248;7.006;2024-03-23T15:59:59;0.60;;;0.20;;
75526;SDS011;64107;49.248;7.006;2024-03-23T16:02:25;0.88;;;0.57;;
75526;SDS011;64107;49.248;7.006;2024-03-23T16:04:52;1.65;;;0.30;;
75526;SDS011;64107;49.248;7.006;2024-03-23T16:07:18;2.05;;;0.50;;
75526;SDS011;64107;49.248;7.006;2024-03-23T16:09:44;1.35;;;0.50;;
75526;SDS011;64107;49.248;7.006;2024-03-23T16:12:10;4.60;;;0.60;;
75526;SDS011;64107;49.248;7.006;2024-03-23T16:14:36;2.00;;;0.75;;
75526;SDS011;64107;49.248;7.006;2024-03-23T16:17:02;1.25;;;0.30;;
75526;SDS011;64107;49.248;7.006;2024-03-23T16:19:28;1.75;;;0.90;;
75526;SDS011;64107;49.248;7.006;2024-03-23T16:24:21;3.05;;;0.63;;
75526;SDS011;64107;49.248;7.006;2024-03-23T16:29:14;1.10;;;0.60;;
75526;SDS011;64107;49.248;7.006;2024-03-23T16:31:40;0.30;;;0.30;;
75526;SDS011;64107;49.248;7.006;2024-03-23T16:34:06;0.60;;;0.30;;
75526;SDS011;64107;49.248;7.006;2024-03-23T16:36:32;3.15;;;0.60;;
75526;SDS011;64107;49.248;7.006;2024-03-23T16:38:57;0.77;;;0.32;;
75526;SDS011;64107;49.248;7.006;2024-03-23T16:41:23;0.30;;;0.30;;
75526;SDS011;64107;49.248;7.006;2024-03-23T16:46:15;3.05;;;0.25;;
75526;SDS011;64107;49.248;7.006;2024-03-23T16:48:42;0.22;;;0.22;;
75526;SDS011;64107;49.248;7.006;2024-03-23T16:51:09;0.98;;;0.43;;
75526;SDS011;64107;49.248;7.006;2024-03-23T16:53:35;1.05;;;0.52;;
75526;SDS011;64107;49.248;7.006;2024-03-23T16:56:05;0.38;;;0.13;;
75526;SDS011;64107;49.248;7.006;2024-03-23T16:58:32;1.95;;;0.55;;
75526;SDS011;64107;49.248;7.006;2024-03-23T17:01:11;0.10;;;0.10;;
75526;SDS011;64107;49.248;7.006;2024-03-23T17:06:09;0.73;;;0.40;;
75526;SDS011;64107;49.248;7.006;2024-03-23T17:08:39;1.85;;;0.30;;
75526;SDS011;64107;49.248;7.006;2024-03-23T17:11:05;0.22;;;0.10;;
75526;SDS011;64107;49.248;7.006;2024-03-23T17:13:31;1.08;;;0.32;;
75526;SDS011;64107;49.248;7.006;2024-03-23T17:15:57;0.10;;;0.10;;
75526;SDS011;64107;49.248;7.006;2024-03-23T17:18:23;0.00;;;0.00;;
75526;SDS011;64107;49.248;7.006;2024-03-23T17:23:28;1.30;;;0.10;;
75526;SDS011;64107;49.248;7.006;2024-03-23T17:25:55;3.00;;;0.43;;
75526;SDS011;64107;49.248;7.006;2024-03-23T17:30:46;0.25;;;0.10;;
75526;SDS011;64107;49.248;7.006;2024-03-23T17:33:13;0.68;;;0.25;;
75526;SDS011;64107;49.248;7.006;2024-03-23T17:35:39;0.47;;;0.30;;
75526;SDS011;64107;49.248;7.006;2024-03-23T17:40:31;9.52;;;0.75;;
75526;SDS011;64107;49.248;7.006;2024-03-23T17:42:57;2.30;;;0.88;;
75526;SDS011;64107;49.248;7.006;2024-03-23T17:45:23;0.70;;;0.45;;
75526;SDS011;64107;49.248;7.006;2024-03-23T17:47:49;1.38;;;0.60;;
75526;SDS011;64107;49.248;7.006;2024-03-23T17:50:16;0.75;;;0.40;;
75526;SDS011;64107;49.248;7.006;2024-03-23T17:52:43;1.02;;;0.30;;
75526;SDS011;64107;49.248;7.006;2024-03-23T17:55:09;0.10;;;0.10;;
75526;SDS011;64107;49.248;7.006;2024-03-23T17:57:35;1.17;;;0.40;;
75526;SDS011;64107;49.248;7.006;2024-03-23T18:00:01;0.20;;;0.20;;
75526;SDS011;64107;49.248;7.006;2024-03-23T18:04:53;1.25;;;0.43;;
75526;SDS011;64107;49.248;7.006;2024-03-23T18:07:19;0.65;;;0.50;;
75526;SDS011;64107;49.248;7.006;2024-03-23T18:09:44;1.35;;;0.43;;